sensor_id;sensor_type;location;lat;lon;timestamp;pressure;altitude;pressure_sealevel;temperature;humidity
30339;BME280;795;49.296;11.348;2022-07-23T00:00:21;96416.16;;;21.83;68.53
30339;BME280;795;49.296;11.348;2022-07-23T00:02:48;96389.88;;;21.82;68.67
30339;BME280;795;49.296;11.348;2022-07-23T00:05:15;96361.72;;;21.94;68.32
30339;BME280;795;49.296;11.348;2022-07-23T00:07:42;96346.34;;;22.04;67.76
30339;BME280;795;49.296;11.348;2022-07-23T00:10:10;96329.47;;;22.07;66.85
30339;BME280;795;49.296;11.348;2022-07-23T00:12:39;96331.38;;;22.07;66.95
30339;BME280;795;49.296;11.348;2022-07-23T00:15:18;96329.03;;;21.99;67.42
30339;BME280;795;49.296;11.348;2022-07-23T00:17:45;96317.31;;;21.87;67.34
30339;BME280;795;49.296;11.348;2022-07-23T00:20:13;96336.66;;;21.97;66.86
30339;BME280;795;49.296;11.348;2022-07-23T00:22:53;96329.06;;;21.87;67.28
30339;BME280;795;49.296;11.348;2022-07-23T00:25:23;96326.81;;;21.72;67.97
30339;BME280;795;49.296;11.348;2022-07-23T00:27:56;96318.94;;;21.76;68.36
30339;BME280;795;49.296;11.348;2022-07-23T00:30:23;96325.25;;;21.76;68.83
30339;BME280;795;49.296;11.348;2022-07-23T00:33:00;96322.03;;;21.68;71.99
30339;BME280;795;49.296;11.348;2022-07-23T00:35:33;96323.63;;;21.52;73.44
30339;BME280;795;49.296;11.348;2022-07-23T00:38:03;96312.69;;;21.29;74.50
30339;BME280;795;49.296;11.348;2022-07-23T00:40:31;96306.53;;;21.22;76.02
30339;BME280;795;49.296;11.348;2022-07-23T00:42:58;96312.84;;;21.11;77.68
30339;BME280;795;49.296;11.348;2022-07-23T00:45:26;96307.63;;;21.09;78.29
30339;BME280;795;49.296;11.348;2022-07-23T00:47:53;96307.34;;;20.99;79.03
30339;BME280;795;49.296;11.348;2022-07-23T00:50:21;96299.84;;;20.83;79.91
30339;BME280;795;49.296;11.348;2022-07-23T00:52:48;96306.25;;;20.66;80.40
30339;BME280;795;49.296;11.348;2022-07-23T00:55:16;96311.44;;;20.56;79.88
30339;BME280;795;49.296;11.348;2022-07-23T00:57:43;96308.25;;;20.59;79.52
30339;BME280;795;49.296;11.348;2022-07-23T01:00:13;96316.06;;;20.55;78.90
30339;BME280;795;49.296;11.348;2022-07-23T01:02:42;96319.03;;;20.54;78.07
30339;BME280;795;49.296;11.348;2022-07-23T01:05:10;96323.91;;;20.63;77.62
30339;BME280;795;49.296;11.348;2022-07-23T01:07:37;96318.19;;;20.53;77.65
30339;BME280;795;49.296;11.348;2022-07-23T01:10:07;96331.94;;;20.58;77.50
30339;BME280;795;49.296;11.348;2022-07-23T01:12:54;96335.28;;;20.60;77.21
30339;BME280;795;49.296;11.348;2022-07-23T01:15:22;96335.44;;;20.77;76.86
30339;BME280;795;49.296;11.348;2022-07-23T01:17:50;96328.81;;;20.84;77.12
30339;BME280;795;49.296;11.348;2022-07-23T01:20:18;96327.13;;;20.72;78.13
30339;BME280;795;49.296;11.348;2022-07-23T01:22:45;96318.34;;;20.70;78.72
30339;BME280;795;49.296;11.348;2022-07-23T01:25:12;96318.34;;;20.70;77.91
30339;BME280;795;49.296;11.348;2022-07-23T01:27:40;96323.34;;;20.73;77.47
30339;BME280;795;49.296;11.348;2022-07-23T01:30:08;96315.75;;;20.75;77.35
30339;BME280;795;49.296;11.348;2022-07-23T01:32:35;96313.13;;;20.68;77.51
30339;BME280;795;49.296;11.348;2022-07-23T01:35:04;96308.25;;;20.59;78.18
30339;BME280;795;49.296;11.348;2022-07-23T01:37:34;96312.72;;;20.53;78.84
30339;BME280;795;49.296;11.348;2022-07-23T01:40:03;96317.63;;;20.63;78.85
30339;BME280;795;49.296;11.348;2022-07-23T01:42:31;96320.81;;;20.60;79.47
30339;BME280;795;49.296;11.348;2022-07-23T01:45:01;96300.28;;;20.57;80.04
30339;BME280;795;49.296;11.348;2022-07-23T01:47:28;96285.56;;;20.46;80.72
30339;BME280;795;49.296;11.348;2022-07-23T01:49:55;96304.00;;;20.33;81.29
30339;BME280;795;49.296;11.348;2022-07-23T01:52:22;96317.03;;;20.31;81.79
30339;BME280;795;49.296;11.348;2022-07-23T01:54:49;96328.53;;;20.33;81.35
30339;BME280;795;49.296;11.348;2022-07-23T01:57:16;96331.50;;;20.31;81.46
30339;BME280;795;49.296;11.348;2022-07-23T01:59:43;96332.50;;;20.19;81.91
30339;BME280;795;49.296;11.348;2022-07-23T02:02:10;96338.84;;;20.31;81.40
30339;BME280;795;49.296;11.348;2022-07-23T02:04:37;96345.06;;;20.20;81.70
30339;BME280;795;49.296;11.348;2022-07-23T02:07:05;96344.44;;;20.18;82.20
30339;BME280;795;49.296;11.348;2022-07-23T02:09:33;96356.66;;;20.33;82.39
30339;BME280;795;49.296;11.348;2022-07-23T02:12:00;96354.66;;;20.40;82.24
30339;BME280;795;49.296;11.348;2022-07-23T02:14:27;96353.22;;;20.38;82.39
30339;BME280;795;49.296;11.348;2022-07-23T02:16:55;96359.22;;;20.28;82.86
30339;BME280;795;49.296;11.348;2022-07-23T02:19:22;96361.03;;;20.16;83.10
30339;BME280;795;49.296;11.348;2022-07-23T02:21:49;96357.28;;;20.17;82.60
30339;BME280;795;49.296;11.348;2022-07-23T02:24:16;96366.03;;;20.19;82.84
30339;BME280;795;49.296;11.348;2022-07-23T02:26:43;96363.00;;;20.27;82.41
30339;BME280;795;49.296;11.348;2022-07-23T02:29:11;96358.78;;;20.31;81.89
30339;BME280;795;49.296;11.348;2022-07-23T02:31:38;96362.34;;;20.32;81.83
30339;BME280;795;49.296;11.348;2022-07-23T02:34:05;96365.81;;;20.39;81.08
30339;BME280;795;49.296;11.348;2022-07-23T02:36:32;96359.38;;;20.33;81.33
30339;BME280;795;49.296;11.348;2022-07-23T02:38:59;96359.50;;;20.38;80.60
30339;BME280;795;49.296;11.348;2022-07-23T02:41:27;96360.44;;;20.32;81.10
30339;BME280;795;49.296;11.348;2022-07-23T02:43:54;96360.91;;;20.29;81.03
30339;BME280;795;49.296;11.348;2022-07-23T02:46:21;96353.69;;;20.35;80.82
30339;BME280;795;49.296;11.348;2022-07-23T02:48:48;96343.50;;;20.42;80.41
30339;BME280;795;49.296;11.348;2022-07-23T02:51:15;96338.44;;;20.45;79.37
30339;BME280;795;49.296;11.348;2022-07-23T02:53:42;96325.53;;;20.52;78.49
30339;BME280;795;49.296;11.348;2022-07-23T02:56:09;96319.28;;;20.64;77.68
30339;BME280;795;49.296;11.348;2022-07-23T02:58:36;96331.88;;;20.76;76.92
30339;BME280;795;49.296;11.348;2022-07-23T03:01:04;96347.91;;;20.84;76.01
30339;BME280;795;49.296;11.348;2022-07-23T03:03:31;96351.81;;;20.77;76.41
30339;BME280;795;49.296;11.348;2022-07-23T03:05:58;96350.88;;;20.83;76.19
30339;BME280;795;49.296;11.348;2022-07-23T03:08:25;96348.81;;;20.78;76.65
30339;BME280;795;49.296;11.348;2022-07-23T03:10:52;96342.66;;;20.71;77.09
30339;BME280;795;49.296;11.348;2022-07-23T03:13:19;96336.59;;;20.69;77.18
30339;BME280;795;49.296;11.348;2022-07-23T03:15:46;96334.22;;;20.61;77.32
30339;BME280;795;49.296;11.348;2022-07-23T03:18:14;96349.41;;;20.69;76.25
30339;BME280;795;49.296;11.348;2022-07-23T03:20:41;96354.78;;;20.75;75.51
30339;BME280;795;49.296;11.348;2022-07-23T03:23:08;96358.34;;;20.76;75.79
30339;BME280;795;49.296;11.348;2022-07-23T03:25:35;96355.00;;;20.74;75.72
30339;BME280;795;49.296;11.348;2022-07-23T03:28:01;96358.09;;;20.77;75.72
30339;BME280;795;49.296;11.348;2022-07-23T03:30:29;96344.00;;;20.80;75.04
30339;BME280;795;49.296;11.348;2022-07-23T03:32:55;96349.19;;;20.82;74.56
30339;BME280;795;49.296;11.348;2022-07-23T03:35:22;96356.56;;;20.81;74.38
30339;BME280;795;49.296;11.348;2022-07-23T03:37:50;96344.13;;;20.85;74.54
30339;BME280;795;49.296;11.348;2022-07-23T03:40:17;96346.47;;;20.82;74.34
30339;BME280;795;49.296;11.348;2022-07-23T03:42:44;96341.84;;;20.82;74.22
30339;BME280;795;49.296;11.348;2022-07-23T03:45:12;96334.72;;;20.81;74.10
30339;BME280;795;49.296;11.348;2022-07-23T03:47:39;96328.94;;;20.89;73.79
30339;BME280;795;49.296;11.348;2022-07-23T03:50:08;96330.84;;;21.00;73.54
30339;BME280;795;49.296;11.348;2022-07-23T03:52:36;96349.88;;;21.07;73.20
30339;BME280;795;49.296;11.348;2022-07-23T03:55:04;96358.78;;;21.14;73.25
30339;BME280;795;49.296;11.348;2022-07-23T03:57:32;96363.66;;;21.24;73.67
30339;BME280;795;49.296;11.348;2022-07-23T03:59:59;96358.91;;;21.19;74.34
30339;BME280;795;49.296;11.348;2022-07-23T04:02:26;96360.44;;;21.15;75.10
30339;BME280;795;49.296;11.348;2022-07-23T04:04:53;96360.56;;;21.08;77.17
30339;BME280;795;49.296;11.348;2022-07-23T04:07:19;96372.84;;;20.99;78.16
30339;BME280;795;49.296;11.348;2022-07-23T04:09:46;96370.22;;;20.93;79.32
30339;BME280;795;49.296;11.348;2022-07-23T04:12:14;96370.91;;;20.77;80.71
30339;BME280;795;49.296;11.348;2022-07-23T04:14:41;96367.31;;;20.65;81.50
30339;BME280;795;49.296;11.348;2022-07-23T04:17:09;96378.47;;;20.63;81.88
30339;BME280;795;49.296;11.348;2022-07-23T04:19:35;96373.09;;;20.57;82.39
30339;BME280;795;49.296;11.348;2022-07-23T04:22:07;96379.34;;;20.45;83.58
30339;BME280;795;49.296;11.348;2022-07-23T04:24:35;96388.72;;;20.49;84.31
30339;BME280;795;49.296;11.348;2022-07-23T04:27:03;96385.25;;;20.42;85.12
30339;BME280;795;49.296;11.348;2022-07-23T04:29:31;96387.84;;;20.37;85.87
30339;BME280;795;49.296;11.348;2022-07-23T04:31:59;96392.41;;;20.25;86.81
30339;BME280;795;49.296;11.348;2022-07-23T04:34:26;96380.91;;;20.23;87.34
30339;BME280;795;49.296;11.348;2022-07-23T04:36:54;96390.06;;;20.29;87.66
30339;BME280;795;49.296;11.348;2022-07-23T04:39:21;96399.13;;;20.23;88.32
30339;BME280;795;49.296;11.348;2022-07-23T04:41:48;96398.94;;;20.24;88.55
30339;BME280;795;49.296;11.348;2022-07-23T04:44:15;96398.50;;;20.21;88.83
30339;BME280;795;49.296;11.348;2022-07-23T04:46:42;96397.31;;;20.17;89.38
30339;BME280;795;49.296;11.348;2022-07-23T04:49:09;96405.69;;;20.15;89.74
30339;BME280;795;49.296;11.348;2022-07-23T04:51:36;96406.19;;;20.30;89.06
30339;BME280;795;49.296;11.348;2022-07-23T04:54:03;96401.19;;;20.27;89.70
30339;BME280;795;49.296;11.348;2022-07-23T04:56:30;96398.94;;;20.24;89.74
30339;BME280;795;49.296;11.348;2022-07-23T04:58:58;96401.56;;;20.31;89.88
30339;BME280;795;49.296;11.348;2022-07-23T05:01:25;96391.25;;;20.33;89.89
30339;BME280;795;49.296;11.348;2022-07-23T05:03:52;96388.53;;;20.33;89.74
30339;BME280;795;49.296;11.348;2022-07-23T05:06:19;96386.88;;;20.32;89.84
30339;BME280;795;49.296;11.348;2022-07-23T05:08:46;96384.97;;;20.32;89.86
30339;BME280;795;49.296;11.348;2022-07-23T05:11:13;96385.09;;;20.37;89.77
30339;BME280;795;49.296;11.348;2022-07-23T05:13:40;96397.72;;;20.50;89.20
30339;BME280;795;49.296;11.348;2022-07-23T05:16:07;96395.47;;;20.47;89.28
30339;BME280;795;49.296;11.348;2022-07-23T05:18:34;96396.44;;;20.52;89.21
30339;BME280;795;49.296;11.348;2022-07-23T05:21:01;96395.47;;;20.47;88.76
30339;BME280;795;49.296;11.348;2022-07-23T05:23:28;96394.09;;;20.56;88.87
30339;BME280;795;49.296;11.348;2022-07-23T05:25:55;96384.38;;;20.60;88.43
30339;BME280;795;49.296;11.348;2022-07-23T05:28:22;96391.75;;;20.71;87.41
30339;BME280;795;49.296;11.348;2022-07-23T05:30:49;96409.13;;;20.88;86.10
30339;BME280;795;49.296;11.348;2022-07-23T05:33:19;96407.84;;;21.02;84.60
30339;BME280;795;49.296;11.348;2022-07-23T05:35:47;96399.88;;;21.19;82.75
30339;BME280;795;49.296;11.348;2022-07-23T05:38:13;96407.13;;;21.48;81.22
30339;BME280;795;49.296;11.348;2022-07-23T05:40:40;96411.72;;;21.82;78.94
30339;BME280;795;49.296;11.348;2022-07-23T05:43:07;96409.41;;;22.37;75.87
30339;BME280;795;49.296;11.348;2022-07-23T05:45:34;96419.38;;;22.43;76.87
30339;BME280;795;49.296;11.348;2022-07-23T05:48:01;96415.34;;;23.02;72.83
30339;BME280;795;49.296;11.348;2022-07-23T05:50:29;96407.22;;;23.07;72.17
30339;BME280;795;49.296;11.348;2022-07-23T05:52:56;96402.09;;;23.28;70.53
30339;BME280;795;49.296;11.348;2022-07-23T05:55:23;96410.34;;;23.61;68.60
30339;BME280;795;49.296;11.348;2022-07-23T05:57:49;96419.72;;;23.65;67.88
30339;BME280;795;49.296;11.348;2022-07-23T06:00:16;96414.66;;;23.73;66.20
30339;BME280;795;49.296;11.348;2022-07-23T06:02:43;96406.03;;;23.87;66.39
30339;BME280;795;49.296;11.348;2022-07-23T06:05:10;96405.94;;;24.15;64.54
30339;BME280;795;49.296;11.348;2022-07-23T06:07:37;96405.88;;;24.53;62.80
30339;BME280;795;49.296;11.348;2022-07-23T06:10:06;96420.81;;;24.84;60.85
30339;BME280;795;49.296;11.348;2022-07-23T06:12:33;96424.44;;;24.89;60.59
30339;BME280;795;49.296;11.348;2022-07-23T06:15:00;96419.19;;;25.15;59.65
30339;BME280;795;49.296;11.348;2022-07-23T06:17:28;96424.50;;;25.21;58.82
30339;BME280;795;49.296;11.348;2022-07-23T06:19:55;96428.97;;;25.32;57.89
30339;BME280;795;49.296;11.348;2022-07-23T06:22:23;96430.94;;;25.37;58.13
30339;BME280;795;49.296;11.348;2022-07-23T06:24:50;96422.19;;;25.72;56.47
30339;BME280;795;49.296;11.348;2022-07-23T06:27:18;96427.41;;;25.73;55.89
30339;BME280;795;49.296;11.348;2022-07-23T06:29:52;96442.91;;;25.84;55.75
30339;BME280;795;49.296;11.348;2022-07-23T06:32:20;96441.53;;;25.82;55.75
30339;BME280;795;49.296;11.348;2022-07-23T06:34:47;96438.25;;;25.90;55.20
30339;BME280;795;49.296;11.348;2022-07-23T06:37:15;96436.19;;;26.07;54.72
30339;BME280;795;49.296;11.348;2022-07-23T06:39:43;96441.31;;;26.30;53.96
30339;BME280;795;49.296;11.348;2022-07-23T06:42:11;96435.22;;;26.23;54.91
30339;BME280;795;49.296;11.348;2022-07-23T06:44:39;96447.34;;;26.27;54.04
30339;BME280;795;49.296;11.348;2022-07-23T06:47:06;96439.44;;;26.46;53.51
30339;BME280;795;49.296;11.348;2022-07-23T06:49:33;96447.00;;;26.70;52.39
30339;BME280;795;49.296;11.348;2022-07-23T06:52:00;96436.63;;;26.87;51.78
30339;BME280;795;49.296;11.348;2022-07-23T06:54:27;96439.47;;;27.13;50.47
30339;BME280;795;49.296;11.348;2022-07-23T06:56:54;96435.31;;;27.10;50.20
30339;BME280;795;49.296;11.348;2022-07-23T06:59:21;96437.19;;;26.94;50.85
30339;BME280;795;49.296;11.348;2022-07-23T07:01:48;96441.31;;;26.92;50.98
30339;BME280;795;49.296;11.348;2022-07-23T07:04:15;96434.94;;;26.76;50.72
30339;BME280;795;49.296;11.348;2022-07-23T07:06:42;96447.69;;;26.41;52.54
30339;BME280;795;49.296;11.348;2022-07-23T07:09:09;96454.97;;;26.62;52.81
30339;BME280;795;49.296;11.348;2022-07-23T07:11:36;96454.31;;;27.07;51.46
30339;BME280;795;49.296;11.348;2022-07-23T07:14:03;96460.50;;;27.44;50.27
30339;BME280;795;49.296;11.348;2022-07-23T07:16:31;96463.25;;;27.79;49.56
30339;BME280;795;49.296;11.348;2022-07-23T07:18:59;96466.31;;;28.08;48.38
30339;BME280;795;49.296;11.348;2022-07-23T07:21:26;96468.75;;;28.24;47.82
30339;BME280;795;49.296;11.348;2022-07-23T07:23:53;96476.22;;;28.29;47.78
30339;BME280;795;49.296;11.348;2022-07-23T07:26:20;96455.53;;;28.16;47.96
30339;BME280;795;49.296;11.348;2022-07-23T07:28:47;96471.28;;;28.01;47.97
30339;BME280;795;49.296;11.348;2022-07-23T07:31:14;96478.72;;;27.85;49.04
30339;BME280;795;49.296;11.348;2022-07-23T07:33:42;96484.50;;;27.53;50.06
30339;BME280;795;49.296;11.348;2022-07-23T07:36:11;96481.66;;;27.33;50.41
30339;BME280;795;49.296;11.348;2022-07-23T07:38:45;96498.91;;;26.88;51.86
30339;BME280;795;49.296;11.348;2022-07-23T07:41:11;96490.78;;;26.72;52.65
30339;BME280;795;49.296;11.348;2022-07-23T07:43:39;96495.47;;;26.66;52.51
30339;BME280;795;49.296;11.348;2022-07-23T07:46:06;96491.91;;;26.71;53.15
30339;BME280;795;49.296;11.348;2022-07-23T07:48:39;96495.41;;;26.56;53.10
30339;BME280;795;49.296;11.348;2022-07-23T07:51:06;96492.41;;;26.63;53.29
30339;BME280;795;49.296;11.348;2022-07-23T07:53:34;96497.53;;;26.86;52.48
30339;BME280;795;49.296;11.348;2022-07-23T07:56:02;96492.38;;;27.10;51.95
30339;BME280;795;49.296;11.348;2022-07-23T07:58:29;96505.69;;;27.43;51.10
30339;BME280;795;49.296;11.348;2022-07-23T08:03:52;96493.59;;;27.79;49.64
30339;BME280;795;49.296;11.348;2022-07-23T08:06:19;96504.41;;;28.16;48.87
30339;BME280;795;49.296;11.348;2022-07-23T08:08:47;96506.06;;;28.07;48.65
30339;BME280;795;49.296;11.348;2022-07-23T08:11:15;96501.59;;;27.96;49.02
30339;BME280;795;49.296;11.348;2022-07-23T08:13:42;96505.72;;;27.48;50.14
30339;BME280;795;49.296;11.348;2022-07-23T08:16:11;96504.34;;;27.55;49.96
30339;BME280;795;49.296;11.348;2022-07-23T08:18:38;96508.25;;;28.25;48.47
30339;BME280;795;49.296;11.348;2022-07-23T08:21:06;96504.91;;;28.38;48.18
30339;BME280;795;49.296;11.348;2022-07-23T08:23:33;96509.31;;;28.44;47.75
30339;BME280;795;49.296;11.348;2022-07-23T08:26:00;96495.50;;;28.49;47.28
30339;BME280;795;49.296;11.348;2022-07-23T08:28:27;96505.50;;;29.24;46.51
30339;BME280;795;49.296;11.348;2022-07-23T08:30:54;96516.19;;;28.57;45.80
30339;BME280;795;49.296;11.348;2022-07-23T08:33:22;96524.47;;;28.82;46.37
30339;BME280;795;49.296;11.348;2022-07-23T08:36:03;96528.47;;;29.10;45.11
30339;BME280;795;49.296;11.348;2022-07-23T08:38:32;96524.03;;;29.68;44.39
30339;BME280;795;49.296;11.348;2022-07-23T08:41:00;96521.63;;;30.34;42.39
30339;BME280;795;49.296;11.348;2022-07-23T08:43:32;96523.28;;;30.63;42.51
30339;BME280;795;49.296;11.348;2022-07-23T08:46:03;96530.88;;;30.19;42.67
30339;BME280;795;49.296;11.348;2022-07-23T08:48:34;96537.31;;;29.71;42.78
30339;BME280;795;49.296;11.348;2022-07-23T08:51:07;96537.03;;;29.18;41.66
30339;BME280;795;49.296;11.348;2022-07-23T08:53:36;96526.22;;;29.76;39.95
30339;BME280;795;49.296;11.348;2022-07-23T08:56:06;96551.72;;;30.11;40.10
30339;BME280;795;49.296;11.348;2022-07-23T08:58:36;96548.31;;;30.82;37.50
30339;BME280;795;49.296;11.348;2022-07-23T09:01:03;96557.31;;;30.40;38.44
30339;BME280;795;49.296;11.348;2022-07-23T09:03:36;96551.25;;;29.99;39.87
30339;BME280;795;49.296;11.348;2022-07-23T09:06:05;96547.81;;;29.15;40.88
30339;BME280;795;49.296;11.348;2022-07-23T09:08:43;96545.81;;;28.26;42.49
30339;BME280;795;49.296;11.348;2022-07-23T09:11:16;96559.16;;;27.37;44.51
30339;BME280;795;49.296;11.348;2022-07-23T09:13:54;96555.06;;;26.82;46.17
30339;BME280;795;49.296;11.348;2022-07-23T09:16:30;96574.88;;;26.43;47.48
30339;BME280;795;49.296;11.348;2022-07-23T09:19:07;96570.34;;;25.95;48.55
30339;BME280;795;49.296;11.348;2022-07-23T09:21:37;96577.28;;;25.70;49.65
30339;BME280;795;49.296;11.348;2022-07-23T09:24:10;96585.00;;;25.47;51.24
30339;BME280;795;49.296;11.348;2022-07-23T09:26:47;96575.84;;;25.41;51.75
30339;BME280;795;49.296;11.348;2022-07-23T09:29:24;96592.53;;;25.35;53.35
30339;BME280;795;49.296;11.348;2022-07-23T09:32:00;96573.97;;;24.98;55.37
30339;BME280;795;49.296;11.348;2022-07-23T09:34:35;96594.97;;;24.71;57.00
30339;BME280;795;49.296;11.348;2022-07-23T09:37:16;96596.25;;;24.64;56.56
30339;BME280;795;49.296;11.348;2022-07-23T09:39:46;96599.44;;;24.56;57.07
30339;BME280;795;49.296;11.348;2022-07-23T09:42:25;96595.28;;;24.53;58.21
30339;BME280;795;49.296;11.348;2022-07-23T09:44:56;96583.72;;;24.34;60.44
30339;BME280;795;49.296;11.348;2022-07-23T09:47:29;96594.41;;;23.86;63.49
30339;BME280;795;49.296;11.348;2022-07-23T09:52:54;96612.06;;;23.34;66.22
30339;BME280;795;49.296;11.348;2022-07-23T09:55:33;96609.69;;;23.65;65.11
30339;BME280;795;49.296;11.348;2022-07-23T09:58:09;96598.63;;;23.60;64.79
30339;BME280;795;49.296;11.348;2022-07-23T10:00:41;96604.72;;;23.23;66.11
30339;BME280;795;49.296;11.348;2022-07-23T10:03:11;96618.22;;;23.13;66.95
30339;BME280;795;49.296;11.348;2022-07-23T10:05:41;96610.25;;;22.99;68.65
30339;BME280;795;49.296;11.348;2022-07-23T10:08:13;96613.28;;;22.63;70.27
30339;BME280;795;49.296;11.348;2022-07-23T10:10:50;96609.59;;;22.69;70.42
30339;BME280;795;49.296;11.348;2022-07-23T10:13:18;96611.50;;;22.69;69.61
30339;BME280;795;49.296;11.348;2022-07-23T10:16:12;96607.81;;;22.40;70.87
30339;BME280;795;49.296;11.348;2022-07-23T10:18:44;96610.53;;;22.40;71.17
30339;BME280;795;49.296;11.348;2022-07-23T10:21:21;96605.53;;;22.48;71.06
30339;BME280;795;49.296;11.348;2022-07-23T10:35:29;96610.16;;;22.36;71.32
30339;BME280;795;49.296;11.348;2022-07-23T10:38:13;96597.31;;;22.02;72.80
30339;BME280;795;49.296;11.348;2022-07-23T10:41:03;96609.81;;;22.56;70.82
30339;BME280;795;49.296;11.348;2022-07-23T10:43:31;96609.44;;;22.87;69.19
30339;BME280;795;49.296;11.348;2022-07-23T10:46:24;96607.03;;;23.02;67.32
30339;BME280;795;49.296;11.348;2022-07-23T10:49:28;96605.13;;;22.91;68.16
30339;BME280;795;49.296;11.348;2022-07-23T10:52:15;96606.66;;;23.10;67.90
30339;BME280;795;49.296;11.348;2022-07-23T10:54:55;96608.94;;;23.02;68.22
30339;BME280;795;49.296;11.348;2022-07-23T10:57:26;96611.59;;;22.85;68.70
30339;BME280;795;49.296;11.348;2022-07-23T11:02:31;96608.91;;;22.62;70.28
30339;BME280;795;49.296;11.348;2022-07-23T11:05:07;96608.63;;;22.40;72.74
30339;BME280;795;49.296;11.348;2022-07-23T11:07:37;96610.75;;;22.04;74.75
30339;BME280;795;49.296;11.348;2022-07-23T11:10:53;96606.72;;;22.18;73.50
30339;BME280;795;49.296;11.348;2022-07-23T11:13:38;96603.50;;;22.09;80.16
30339;BME280;795;49.296;11.348;2022-07-23T11:16:25;96604.28;;;20.97;87.47
30339;BME280;795;49.296;11.348;2022-07-23T11:18:58;96606.75;;;20.99;92.76
30339;BME280;795;49.296;11.348;2022-07-23T11:24:17;96593.72;;;21.01;89.89
30339;BME280;795;49.296;11.348;2022-07-23T11:26:56;96609.63;;;21.04;90.35
30339;BME280;795;49.296;11.348;2022-07-23T11:31:57;96608.34;;;20.09;100.00
30339;BME280;795;49.296;11.348;2022-07-23T11:34:42;96598.50;;;19.52;100.00
30339;BME280;795;49.296;11.348;2022-07-23T11:37:31;96584.25;;;19.57;100.00
30339;BME280;795;49.296;11.348;2022-07-23T11:39:59;96586.91;;;19.32;100.00
30339;BME280;795;49.296;11.348;2022-07-23T11:42:26;96593.41;;;19.38;100.00
30339;BME280;795;49.296;11.348;2022-07-23T11:44:57;96582.44;;;19.06;100.00
30339;BME280;795;49.296;11.348;2022-07-23T11:47:26;96583.63;;;19.55;100.00
30339;BME280;795;49.296;11.348;2022-07-23T11:49:57;96585.25;;;20.12;100.00
30339;BME280;795;49.296;11.348;2022-07-23T11:52:27;96582.97;;;20.70;100.00
30339;BME280;795;49.296;11.348;2022-07-23T11:55:04;96572.94;;;21.18;100.00
30339;BME280;795;49.296;11.348;2022-07-23T11:57:39;96577.34;;;22.13;100.00
30339;BME280;795;49.296;11.348;2022-07-23T12:00:30;96565.97;;;24.59;89.37
30339;BME280;795;49.296;11.348;2022-07-23T12:03:02;96555.41;;;25.32;80.83
30339;BME280;795;49.296;11.348;2022-07-23T12:05:38;96546.25;;;25.27;76.27
30339;BME280;795;49.296;11.348;2022-07-23T12:08:09;96558.56;;;24.97;78.18
30339;BME280;795;49.296;11.348;2022-07-23T12:10:44;96550.94;;;24.45;81.69
30339;BME280;795;49.296;11.348;2022-07-23T12:13:19;96552.72;;;25.91;76.26
30339;BME280;795;49.296;11.348;2022-07-23T12:15:52;96554.66;;;27.16;70.91
30339;BME280;795;49.296;11.348;2022-07-23T12:18:26;96551.03;;;28.17;61.25
30339;BME280;795;49.296;11.348;2022-07-23T12:21:04;96547.41;;;29.51;59.41
30339;BME280;795;49.296;11.348;2022-07-23T12:23:31;96551.94;;;29.32;54.21
30339;BME280;795;49.296;11.348;2022-07-23T12:26:02;96549.72;;;29.29;51.77
30339;BME280;795;49.296;11.348;2022-07-23T12:28:32;96556.38;;;29.28;51.61
30339;BME280;795;49.296;11.348;2022-07-23T12:31:00;96552.59;;;30.69;48.40
30339;BME280;795;49.296;11.348;2022-07-23T12:33:37;96548.34;;;31.06;46.98
30339;BME280;795;49.296;11.348;2022-07-23T12:36:09;96549.72;;;30.79;46.97
30339;BME280;795;49.296;11.348;2022-07-23T12:38:51;96549.13;;;29.37;50.36
30339;BME280;795;49.296;11.348;2022-07-23T12:41:18;96542.59;;;29.08;51.60
30339;BME280;795;49.296;11.348;2022-07-23T12:43:46;96540.94;;;30.72;46.21
30339;BME280;795;49.296;11.348;2022-07-23T12:46:19;96537.84;;;31.87;44.25
30339;BME280;795;49.296;11.348;2022-07-23T12:48:54;96533.91;;;30.56;45.88
30339;BME280;795;49.296;11.348;2022-07-23T12:51:31;96533.94;;;30.17;46.52
30339;BME280;795;49.296;11.348;2022-07-23T12:54:08;96537.94;;;31.16;43.68
30339;BME280;795;49.296;11.348;2022-07-23T12:56:40;96538.09;;;30.77;44.09
30339;BME280;795;49.296;11.348;2022-07-23T12:59:16;96537.88;;;30.11;44.44
30339;BME280;795;49.296;11.348;2022-07-23T13:01:57;96538.38;;;29.80;45.39
30339;BME280;795;49.296;11.348;2022-07-23T13:04:28;96544.75;;;29.75;43.97
30339;BME280;795;49.296;11.348;2022-07-23T13:06:59;96550.84;;;29.77;44.53
30339;BME280;795;49.296;11.348;2022-07-23T13:09:34;96548.06;;;29.82;44.20
30339;BME280;795;49.296;11.348;2022-07-23T13:12:09;96551.94;;;30.54;41.49
30339;BME280;795;49.296;11.348;2022-07-23T13:14:37;96546.97;;;31.03;39.50
30339;BME280;795;49.296;11.348;2022-07-23T13:17:05;96549.97;;;31.30;38.68
30339;BME280;795;49.296;11.348;2022-07-23T13:19:33;96546.09;;;30.21;41.08
30339;BME280;795;49.296;11.348;2022-07-23T13:22:01;96545.84;;;29.35;41.57
30339;BME280;795;49.296;11.348;2022-07-23T13:24:35;96541.91;;;28.62;43.48
30339;BME280;795;49.296;11.348;2022-07-23T13:27:06;96546.34;;;28.43;43.99
30339;BME280;795;49.296;11.348;2022-07-23T13:29:37;96546.34;;;28.48;44.18
30339;BME280;795;49.296;11.348;2022-07-23T13:32:04;96551.56;;;28.55;44.42
30339;BME280;795;49.296;11.348;2022-07-23T13:34:51;96545.75;;;28.66;44.07
30339;BME280;795;49.296;11.348;2022-07-23T13:37:19;96544.13;;;28.50;44.92
30339;BME280;795;49.296;11.348;2022-07-23T13:39:46;96535.28;;;29.42;43.03
30339;BME280;795;49.296;11.348;2022-07-23T13:42:13;96551.72;;;29.09;42.19
30339;BME280;795;49.296;11.348;2022-07-23T13:44:40;96550.06;;;29.67;40.69
30339;BME280;795;49.296;11.348;2022-07-23T13:47:07;96551.72;;;29.68;40.83
30339;BME280;795;49.296;11.348;2022-07-23T13:49:34;96556.09;;;30.17;40.66